Terminal Aerodrome Forecast
Issued by NWS Cleveland, OH

Home | Current Version | Previous Version | Text Only | Print | Product List | Glossary Off
Versions: 1 2 3 4 5 6 7 8 9 10 11 12 13 14 15 16 17 18 19 20

000
FTUS41 KCLE 170500
TAFYNG
TAF
KYNG 170540Z 1706/1806 21005KT P6SM VCSH OVC035
      TEMPO 1706/1710 6SM -SHRA BKN025
     FM171100 23005KT P6SM OVC008
     FM171500 28006KT P6SM SCT008 BKN020
     FM172200 VRB03KT P6SM SCT022=

USA.gov is the U.S. government's official web portal to all federal, state and local government web resources and services.